Time;durP1;ratioP1;P1;durP2;ratioP2;P2;SDS_P1;SDS_P2;PMS_P1;PMS_P2;Temp;Humidity;BMP_temperature;BMP_pressure;BME280_temperature;BME280_humidity;BME280_pressure;Samples;Min_cycle;Max_cycle;Signal;HPM_P1;HPM_P2
2023/12/26 00:01:18;;;;;;;;;;;10.90;99.90;;;;;;8434829;28;19924;-76
2023/12/26 00:05:21;;;;;;;;;;;10.90;99.90;;;;;;8431437;28;19924;-76
2023/12/26 00:09:23;;;;;;;;;;;10.80;99.90;;;;;;8447310;28;19931;-76
2023/12/26 00:13:25;;;;;;;;;;;10.80;99.90;;;;;;8434826;28;20379;-76
2023/12/26 00:17:27;;;;;;;;;;;10.80;99.90;;;;;;8436719;28;20286;-75
2023/12/26 00:21:29;;;;;;;;;;;10.80;99.90;;;;;;8439908;28;19928;-75
2023/12/26 00:25:30;;;;;;;;;;;10.80;99.90;;;;;;8439561;28;19970;-76
2023/12/26 00:29:32;;;;;;;;;;;10.80;99.90;;;;;;8451042;28;19924;-75
2023/12/26 00:33:34;;;;;;;;;;;10.80;99.90;;;;;;8443972;28;19959;-75
2023/12/26 00:37:36;;;;;;;;;;;10.80;99.90;;;;;;8447461;28;19953;-77
2023/12/26 00:41:37;;;;;;;;;;;10.80;99.90;;;;;;8438435;28;20314;-76
2023/12/26 00:45:39;;;;;;;;;;;10.80;99.90;;;;;;8431334;28;19932;-76
2023/12/26 00:49:41;;;;;;;;;;;10.80;99.90;;;;;;8433374;28;19924;-75
2023/12/26 00:53:44;;;;;;;;;;;10.80;99.90;;;;;;8431391;28;20205;-76
2023/12/26 00:57:46;;;;;;;;;;;10.80;99.90;;;;;;8466136;27;19977;-75
2023/12/26 01:01:48;;;;;;;;;;;10.80;99.90;;;;;;8439736;28;20358;-75
2023/12/26 01:05:50;;;;;;;;;;;10.80;99.90;;;;;;8436281;28;19928;-77
2023/12/26 01:09:52;;;;;;;;;;;10.80;99.90;;;;;;8431682;28;19932;-76
2023/12/26 01:13:54;;;;;;;;;;;10.80;99.90;;;;;;8438676;28;19932;-76
2023/12/26 01:17:56;;;;;;;;;;;10.80;99.90;;;;;;8430406;28;19932;-75
2023/12/26 01:21:57;;;;;;;;;;;10.80;99.90;;;;;;8446156;28;20291;-75
2023/12/26 01:25:59;;;;;;;;;;;10.80;99.90;;;;;;8428157;28;20035;-75
2023/12/26 01:30:02;;;;;;;;;;;10.80;99.90;;;;;;8441015;28;19927;-75
2023/12/26 01:34:04;;;;;;;;;;;10.80;99.90;;;;;;8436732;28;20410;-75
2023/12/26 01:38:06;;;;;;;;;;;10.80;99.90;;;;;;8438788;28;19924;-75
2023/12/26 01:42:08;;;;;;;;;;;10.80;99.90;;;;;;8442320;28;19939;-75
2023/12/26 01:46:10;;;;;;;;;;;10.80;99.90;;;;;;8424640;28;19928;-75
2023/12/26 01:50:13;;;;;;;;;;;10.70;99.90;;;;;;8444492;28;19928;-75
2023/12/26 01:54:15;;;;;;;;;;;10.70;99.90;;;;;;8443190;28;19924;-75
2023/12/26 02:03:21;;;;;;;;;;;10.80;99.90;;;;;;8447817;28;19958;-75
2023/12/26 02:07:23;;;;;;;;;;;10.70;99.90;;;;;;8429152;28;20365;-75
2023/12/26 02:11:24;;;;;;;;;;;10.80;99.90;;;;;;8436765;28;20538;-75
2023/12/26 02:15:26;;;;;;;;;;;10.80;99.90;;;;;;8441776;28;19970;-76
2023/12/26 02:19:28;;;;;;;;;;;10.80;99.90;;;;;;8436476;28;19935;-76
2023/12/26 02:23:31;;;;;;;;;;;10.80;99.90;;;;;;8438796;28;19928;-76
2023/12/26 02:27:36;;;;;;;;;;;10.80;99.90;;;;;;8435648;28;20395;-76
2023/12/26 02:31:39;;;;;;;;;;;10.80;99.90;;;;;;8444917;28;19931;-76
2023/12/26 02:35:41;;;;;;;;;;;10.70;99.90;;;;;;8425626;28;20295;-75
2023/12/26 02:39:44;;;;;;;;;;;10.70;99.90;;;;;;8423620;28;19978;-76
2023/12/26 02:43:46;;;;;;;;;;;10.70;99.90;;;;;;8424973;28;19985;-76
2023/12/26 02:47:48;;;;;;;;;;;10.70;99.90;;;;;;8423828;28;20325;-75
2023/12/26 02:51:50;;;;;;;;;;;10.70;99.90;;;;;;8442106;28;19991;-75
2023/12/26 03:00:55;;;;;;;;;;;10.70;99.90;;;;;;8425719;28;20011;-75
2023/12/26 03:04:56;;;;;;;;;;;10.60;99.90;;;;;;8445299;28;19978;-75
2023/12/26 03:08:58;;;;;;;;;;;10.50;99.90;;;;;;8425771;28;19928;-75
2023/12/26 03:13:00;;;;;;;;;;;10.50;99.90;;;;;;8441196;28;20333;-75
2023/12/26 03:17:02;;;;;;;;;;;10.50;99.90;;;;;;8471994;27;19924;-75
2023/12/26 03:21:03;;;;;;;;;;;10.50;99.90;;;;;;8440627;28;20021;-75
2023/12/26 03:25:06;;;;;;;;;;;10.50;99.90;;;;;;8436972;28;19973;-76
2023/12/26 03:29:08;;;;;;;;;;;10.40;99.90;;;;;;8438813;28;19953;-75
2023/12/26 03:33:09;;;;;;;;;;;10.50;99.90;;;;;;8437529;28;20418;-75
2023/12/26 03:37:11;;;;;;;;;;;10.40;99.90;;;;;;8462566;27;19934;-75
2023/12/26 03:41:13;;;;;;;;;;;10.30;99.90;;;;;;8430824;28;19928;-75
2023/12/26 03:45:15;;;;;;;;;;;10.30;99.90;;;;;;8444199;28;19924;-75
2023/12/26 03:49:16;;;;;;;;;;;10.20;99.90;;;;;;8425240;28;19971;-75
2023/12/26 03:53:18;;;;;;;;;;;10.10;99.90;;;;;;8433133;28;19928;-75
2023/12/26 03:57:20;;;;;;;;;;;10.10;99.90;;;;;;8429165;28;19932;-75
2023/12/26 04:01:22;;;;;;;;;;;10.00;99.90;;;;;;8432539;28;20112;-75
2023/12/26 04:05:24;;;;;;;;;;;9.90;99.90;;;;;;8430459;28;19928;-75
2023/12/26 04:09:25;;;;;;;;;;;9.80;99.90;;;;;;8428749;28;19924;-75
2023/12/26 04:13:27;;;;;;;;;;;9.70;99.90;;;;;;8430438;28;20284;-75
2023/12/26 04:17:29;;;;;;;;;;;9.70;99.90;;;;;;8432882;28;20341;-75
2023/12/26 04:21:30;;;;;;;;;;;9.60;99.90;;;;;;8422751;28;19978;-75
2023/12/26 04:25:32;;;;;;;;;;;9.60;99.90;;;;;;8464037;27;19975;-76
2023/12/26 04:29:34;;;;;;;;;;;9.60;99.90;;;;;;8439074;28;19984;-75
2023/12/26 04:33:36;;;;;;;;;;;9.60;99.90;;;;;;8432534;28;19969;-75
2023/12/26 04:37:38;;;;;;;;;;;9.60;99.90;;;;;;8425611;28;19928;-75
2023/12/26 04:41:39;;;;;;;;;;;9.60;99.90;;;;;;8432189;28;19928;-75
2023/12/26 04:45:41;;;;;;;;;;;9.60;99.90;;;;;;8442215;28;19924;-75
2023/12/26 04:49:43;;;;;;;;;;;9.60;99.90;;;;;;8416024;28;19978;-76
2023/12/26 04:53:46;;;;;;;;;;;9.60;99.90;;;;;;8443634;28;19963;-76
2023/12/26 04:57:48;;;;;;;;;;;9.50;99.90;;;;;;8436420;28;19924;-75
2023/12/26 05:01:49;;;;;;;;;;;9.40;99.90;;;;;;8456220;27;19924;-76
2023/12/26 05:05:51;;;;;;;;;;;9.40;99.90;;;;;;8440989;28;19935;-76
2023/12/26 05:09:53;;;;;;;;;;;9.40;99.90;;;;;;8433124;28;19923;-76
2023/12/26 05:13:54;;;;;;;;;;;9.40;99.90;;;;;;8430359;28;20226;-76
2023/12/26 05:17:56;;;;;;;;;;;9.40;99.90;;;;;;8447343;28;19924;-76
2023/12/26 05:21:59;;;;;;;;;;;9.40;99.90;;;;;;8420458;28;19940;-76
2023/12/26 05:26:00;;;;;;;;;;;9.30;99.90;;;;;;8463392;27;19932;-76
2023/12/26 05:30:08;;;;;;;;;;;9.20;99.90;;;;;;8429653;28;19947;-76
2023/12/26 05:34:10;;;;;;;;;;;9.10;99.90;;;;;;8426808;28;19939;-76
2023/12/26 05:38:12;;;;;;;;;;;9.10;99.90;;;;;;8441258;27;20395;-76
2023/12/26 05:42:15;;;;;;;;;;;9.00;99.90;;;;;;8424472;28;20408;-76
2023/12/26 05:46:18;;;;;;;;;;;8.90;99.90;;;;;;8421676;28;19931;-76
2023/12/26 05:50:20;;;;;;;;;;;8.90;99.90;;;;;;8424022;28;19928;-76
2023/12/26 05:54:22;;;;;;;;;;;8.80;99.90;;;;;;8423056;28;20197;-76
2023/12/26 05:58:25;;;;;;;;;;;8.80;99.90;;;;;;8433805;28;19969;-76
2023/12/26 06:02:26;;;;;;;;;;;8.80;99.90;;;;;;8426250;28;20492;-76
2023/12/26 06:06:28;;;;;;;;;;;8.70;99.90;;;;;;8431558;28;19989;-78
2023/12/26 06:10:30;;;;;;;;;;;8.70;99.90;;;;;;8437147;28;19924;-76
2023/12/26 06:14:32;;;;;;;;;;;8.70;99.90;;;;;;8437060;28;19924;-76
2023/12/26 06:18:33;;;;;;;;;;;8.60;99.90;;;;;;8437101;28;19946;-76
2023/12/26 06:22:35;;;;;;;;;;;8.60;99.90;;;;;;8436085;28;19924;-76
2023/12/26 06:26:37;;;;;;;;;;;8.60;99.90;;;;;;8424470;28;20375;-76
2023/12/26 06:30:39;;;;;;;;;;;8.70;99.90;;;;;;8457481;27;19980;-75
2023/12/26 06:34:41;;;;;;;;;;;8.60;99.90;;;;;;8448395;28;20383;-76
2023/12/26 06:38:43;;;;;;;;;;;8.60;99.90;;;;;;8428568;28;21543;-76
2023/12/26 06:42:45;;;;;;;;;;;8.50;99.90;;;;;;8438685;28;19927;-76
2023/12/26 06:46:47;;;;;;;;;;;8.50;99.90;;;;;;8436397;28;19973;-76
2023/12/26 06:50:49;;;;;;;;;;;8.50;99.90;;;;;;8430167;28;19924;-76
2023/12/26 06:54:50;;;;;;;;;;;8.50;99.90;;;;;;8433130;28;19975;-75
2023/12/26 06:58:52;;;;;;;;;;;8.50;99.90;;;;;;8420870;28;19924;-75
2023/12/26 07:02:55;;;;;;;;;;;8.50;99.90;;;;;;8420441;28;19928;-75
2023/12/26 07:06:57;;;;;;;;;;;8.40;99.90;;;;;;8419682;28;19924;-76
2023/12/26 07:10:59;;;;;;;;;;;8.50;99.90;;;;;;8426677;28;19954;-76
2023/12/26 07:15:01;;;;;;;;;;;8.40;99.90;;;;;;8431519;28;19941;-76
2023/12/26 07:19:03;;;;;;;;;;;8.40;99.90;;;;;;8426487;28;19924;-75
2023/12/26 07:23:07;;;;;;;;;;;8.40;99.90;;;;;;8441129;28;19981;-75
2023/12/26 07:27:09;;;;;;;;;;;8.30;99.90;;;;;;8441910;28;19952;-75
2023/12/26 07:31:17;;;;;;;;;;;8.30;99.90;;;;;;8437167;28;19924;-76
2023/12/26 07:35:18;;;;;;;;;;;8.30;99.90;;;;;;8431233;28;20159;-76
2023/12/26 07:39:20;;;;;;;;;;;8.20;99.90;;;;;;8422900;28;19924;-76
2023/12/26 07:43:22;;;;;;;;;;;8.20;99.90;;;;;;8427821;28;20028;-76
2023/12/26 07:47:23;;;;;;;;;;;8.20;99.90;;;;;;8433712;28;19924;-76
2023/12/26 07:51:25;;;;;;;;;;;8.20;99.90;;;;;;8438345;28;19934;-76
2023/12/26 07:55:29;;;;;;;;;;;8.20;99.90;;;;;;8447233;28;19924;-76
2023/12/26 07:59:31;;;;;;;;;;;8.20;99.90;;;;;;8458971;27;19935;-76
2023/12/26 08:03:32;;;;;;;;;;;8.20;99.90;;;;;;8423312;28;19924;-76
2023/12/26 08:07:34;;;;;;;;;;;8.30;99.90;;;;;;8433175;28;19931;-76
2023/12/26 08:11:36;;;;;;;;;;;8.30;99.90;;;;;;8436799;28;19924;-75
2023/12/26 08:15:38;;;;;;;;;;;8.30;99.90;;;;;;8441274;28;19924;-76
2023/12/26 08:19:39;;;;;;;;;;;8.30;99.90;;;;;;8443561;28;19924;-76
2023/12/26 08:23:41;;;;;;;;;;;8.30;99.90;;;;;;8439358;28;19976;-76
2023/12/26 08:27:43;;;;;;;;;;;8.40;99.90;;;;;;8440414;28;20322;-76
2023/12/26 08:31:45;;;;;;;;;;;8.30;99.90;;;;;;8450856;28;19924;-76
2023/12/26 08:35:48;;;;;;;;;;;8.40;99.90;;;;;;8440626;28;19928;-75
2023/12/26 08:39:50;;;;;;;;;;;8.40;99.90;;;;;;8446864;28;20283;-76
2023/12/26 08:43:51;;;;;;;;;;;8.40;99.90;;;;;;8445811;28;19932;-76
2023/12/26 08:47:54;;;;;;;;;;;8.50;99.90;;;;;;8449915;28;19924;-76
2023/12/26 08:51:56;;;;;;;;;;;8.50;99.90;;;;;;8441393;28;19931;-76
2023/12/26 08:55:57;;;;;;;;;;;8.60;99.90;;;;;;8434128;27;20032;-76
2023/12/26 09:00:00;;;;;;;;;;;8.60;99.90;;;;;;8431233;28;19972;-76
2023/12/26 09:04:02;;;;;;;;;;;8.70;99.90;;;;;;8452789;28;19932;-75
2023/12/26 09:08:04;;;;;;;;;;;8.70;99.90;;;;;;8464651;27;19928;-76
2023/12/26 09:12:06;;;;;;;;;;;8.60;99.90;;;;;;8461672;27;19934;-76
2023/12/26 09:16:08;;;;;;;;;;;8.60;99.90;;;;;;8425088;28;20367;-75
2023/12/26 09:20:12;;;;;;;;;;;8.60;99.90;;;;;;8451196;27;19938;-76
2023/12/26 09:24:14;;;;;;;;;;;8.60;99.90;;;;;;8436952;28;19923;-76
2023/12/26 09:28:16;;;;;;;;;;;8.70;99.90;;;;;;8431528;28;19977;-76
2023/12/26 09:32:18;;;;;;;;;;;8.80;99.90;;;;;;8426005;28;20391;-76
2023/12/26 09:36:20;;;;;;;;;;;8.90;99.90;;;;;;8435828;28;19924;-76
2023/12/26 09:40:22;;;;;;;;;;;9.10;99.90;;;;;;8418325;28;19932;-76
2023/12/26 09:44:23;;;;;;;;;;;9.30;99.90;;;;;;8470441;27;19924;-76
2023/12/26 09:48:25;;;;;;;;;;;9.30;99.90;;;;;;8449589;28;19977;-76
2023/12/26 09:52:29;;;;;;;;;;;9.40;99.90;;;;;;8425137;28;20367;-76
2023/12/26 09:56:31;;;;;;;;;;;9.50;99.90;;;;;;8433269;28;20372;-76
2023/12/26 10:00:34;;;;;;;;;;;9.60;99.90;;;;;;8433599;28;20390;-76
2023/12/26 10:04:36;;;;;;;;;;;9.70;99.90;;;;;;8441323;28;19924;-76
2023/12/26 10:08:38;;;;;;;;;;;9.70;99.90;;;;;;8439030;28;19924;-75
2023/12/26 10:12:40;;;;;;;;;;;9.80;99.90;;;;;;8437142;28;19945;-76
2023/12/26 10:16:42;;;;;;;;;;;9.90;99.90;;;;;;8423997;28;20276;-76
2023/12/26 10:20:43;;;;;;;;;;;10.00;99.90;;;;;;8466147;27;19924;-76
2023/12/26 10:24:47;;;;;;;;;;;10.10;99.90;;;;;;8435922;28;19935;-75
2023/12/26 10:28:50;;;;;;;;;;;10.20;99.90;;;;;;8437501;28;20361;-76
2023/12/26 10:33:01;;;;;;;;;;;10.30;99.90;;;;;;8436710;28;19973;-76
2023/12/26 10:37:04;;;;;;;;;;;10.40;99.90;;;;;;8423327;28;19932;-76
2023/12/26 10:41:08;;;;;;;;;;;10.60;99.90;;;;;;8423018;28;20441;-76
2023/12/26 10:45:10;;;;;;;;;;;10.80;99.90;;;;;;8442551;28;19931;-76
2023/12/26 10:49:25;;;;;;;;;;;11.00;99.90;;;;;;8425569;28;19928;-76
2023/12/26 10:53:31;;;;;;;;;;;11.40;99.90;;;;;;8431007;28;19924;-76
2023/12/26 10:57:34;;;;;;;;;;;11.90;99.90;;;;;;8426153;28;20018;-77
2023/12/26 13:54:16;;;;;;;;;;;9.70;99.90;;;;;;8435980;28;19936;-77
2023/12/26 13:58:36;;;;;;;;;;;9.70;99.90;;;;;;8409218;28;20372;-76
2023/12/26 14:02:58;;;;;;;;;;;9.70;99.90;;;;;;8402242;28;19932;-77
2023/12/26 14:07:20;;;;;;;;;;;9.70;99.90;;;;;;8403279;28;19923;-76
2023/12/26 14:11:41;;;;;;;;;;;9.60;99.90;;;;;;8398104;28;19930;-77
2023/12/26 14:16:02;;;;;;;;;;;9.60;99.90;;;;;;8397088;28;20246;-77
2023/12/26 14:20:22;;;;;;;;;;;9.60;99.90;;;;;;8394039;28;20296;-76
2023/12/26 14:24:43;;;;;;;;;;;9.60;99.90;;;;;;8400455;28;19928;-76
2023/12/26 14:29:03;;;;;;;;;;;9.50;99.90;;;;;;8431987;27;20292;-77
2023/12/26 14:33:24;;;;;;;;;;;9.50;99.90;;;;;;8437693;27;19958;-76
2023/12/26 14:37:44;;;;;;;;;;;9.40;99.90;;;;;;8425812;27;19929;-76
2023/12/26 14:42:05;;;;;;;;;;;9.40;99.90;;;;;;8431424;27;19932;-76
2023/12/26 14:46:50;;;;;;;;;;;9.40;99.90;;;;;;8495073;27;19919;-77
2023/12/26 14:51:10;;;;;;;;;;;9.40;99.90;;;;;;8498692;27;20327;-77
2023/12/26 14:55:31;;;;;;;;;;;9.40;99.90;;;;;;8483641;27;20042;-78
2023/12/26 14:59:52;;;;;;;;;;;9.40;99.90;;;;;;8480111;27;19984;-77
2023/12/26 15:03:53;;;;;;;;;;;9.40;99.90;;;;;;8485102;27;19934;-77
2023/12/26 15:07:55;;;;;;;;;;;9.40;99.90;;;;;;8470634;27;20374;-77
2023/12/26 15:11:57;;;;;;;;;;;9.30;99.90;;;;;;8479221;27;19924;-77
2023/12/26 15:15:59;;;;;;;;;;;9.30;99.90;;;;;;8492022;27;19935;-77
2023/12/26 15:20:01;;;;;;;;;;;9.30;99.90;;;;;;8489860;27;19931;-77
2023/12/26 15:24:03;;;;;;;;;;;9.30;99.90;;;;;;8471656;27;19932;-77
2023/12/26 15:28:05;;;;;;;;;;;9.30;99.90;;;;;;8483869;27;20280;-77
2023/12/26 15:32:09;;;;;;;;;;;9.30;99.90;;;;;;8486624;27;19928;-77
2023/12/26 15:36:18;;;;;;;;;;;9.30;99.90;;;;;;8468090;27;20370;-77
2023/12/26 15:40:19;;;;;;;;;;;9.30;99.90;;;;;;8478939;27;19928;-77
2023/12/26 15:44:21;;;;;;;;;;;9.20;99.90;;;;;;8483296;27;20241;-77
2023/12/26 15:48:23;;;;;;;;;;;9.20;99.90;;;;;;8482458;27;19977;-77
2023/12/26 15:52:25;;;;;;;;;;;9.10;99.90;;;;;;8486169;27;19931;-77
2023/12/26 15:56:29;;;;;;;;;;;9.10;99.90;;;;;;8469127;27;20399;-77
2023/12/26 16:00:32;;;;;;;;;;;9.10;99.90;;;;;;8466247;27;19928;-77
2023/12/26 16:04:34;;;;;;;;;;;9.00;99.90;;;;;;8456810;27;20010;-77
2023/12/26 16:08:36;;;;;;;;;;;9.00;99.90;;;;;;8446878;27;19927;-77
2023/12/26 16:12:40;;;;;;;;;;;8.90;99.90;;;;;;8461266;27;19966;-77
2023/12/26 16:16:44;;;;;;;;;;;8.90;99.90;;;;;;8457728;27;19932;-77
2023/12/26 16:20:46;;;;;;;;;;;8.90;99.90;;;;;;8476744;27;19934;-77
2023/12/26 16:24:47;;;;;;;;;;;8.80;99.90;;;;;;8466257;27;19928;-77
2023/12/26 16:28:52;;;;;;;;;;;8.80;99.90;;;;;;8445047;27;19924;-77
2023/12/26 16:32:54;;;;;;;;;;;8.70;99.90;;;;;;8462550;27;19924;-77
2023/12/26 16:36:56;;;;;;;;;;;8.70;99.90;;;;;;8442764;27;19946;-77
2023/12/26 16:41:04;;;;;;;;;;;8.60;99.90;;;;;;8464408;27;19924;-77
2023/12/26 16:45:06;;;;;;;;;;;8.60;99.90;;;;;;8463222;27;19924;-77
2023/12/26 16:49:08;;;;;;;;;;;8.50;99.90;;;;;;8460527;27;19931;-78
2023/12/26 16:53:10;;;;;;;;;;;8.40;99.90;;;;;;8457205;27;19941;-77
2023/12/26 16:57:12;;;;;;;;;;;8.30;99.90;;;;;;8455987;27;19936;-77
2023/12/26 17:01:14;;;;;;;;;;;8.20;99.90;;;;;;8445006;27;20336;-77
2023/12/26 17:05:16;;;;;;;;;;;8.20;99.90;;;;;;8451693;27;19973;-77
2023/12/26 17:09:17;;;;;;;;;;;8.10;99.90;;;;;;8460612;27;19923;-77
2023/12/26 17:13:19;;;;;;;;;;;8.10;99.90;;;;;;8441498;27;19986;-77
2023/12/26 17:17:23;;;;;;;;;;;8.00;99.90;;;;;;8463107;27;19950;-77
2023/12/26 17:21:24;;;;;;;;;;;7.90;99.90;;;;;;8461931;27;20648;-77
2023/12/26 17:25:27;;;;;;;;;;;7.90;99.90;;;;;;8456291;27;20289;-77
2023/12/26 17:29:28;;;;;;;;;;;7.80;99.90;;;;;;8460732;27;19962;-77
2023/12/26 17:33:30;;;;;;;;;;;7.70;99.90;;;;;;8462383;27;19924;-77
2023/12/26 17:37:32;;;;;;;;;;;7.70;99.90;;;;;;8461620;27;19973;-77
2023/12/26 17:41:34;;;;;;;;;;;7.60;99.90;;;;;;8456967;27;20035;-77
2023/12/26 17:45:35;;;;;;;;;;;7.60;99.90;;;;;;8462995;27;19950;-77
2023/12/26 17:49:37;;;;;;;;;;;7.50;99.90;;;;;;8468069;27;19923;-77
2023/12/26 17:53:40;;;;;;;;;;;7.50;99.90;;;;;;8452039;27;19931;-77
2023/12/26 17:57:42;;;;;;;;;;;7.40;99.90;;;;;;8461353;27;20663;-77
2023/12/26 18:01:43;;;;;;;;;;;7.40;99.90;;;;;;8461578;27;19928;-77
2023/12/26 18:05:45;;;;;;;;;;;7.30;99.90;;;;;;8458767;27;20294;-77
2023/12/26 18:09:47;;;;;;;;;;;7.10;99.90;;;;;;8459391;27;19927;-77
2023/12/26 18:13:49;;;;;;;;;;;7.00;99.90;;;;;;8460232;27;19923;-77
2023/12/26 18:17:51;;;;;;;;;;;6.90;99.90;;;;;;8466187;27;20337;-77
2023/12/26 18:21:53;;;;;;;;;;;6.80;99.90;;;;;;8449749;27;19931;-77
2023/12/26 18:25:55;;;;;;;;;;;6.80;99.90;;;;;;8436717;28;20394;-77
2023/12/26 18:29:56;;;;;;;;;;;6.70;99.90;;;;;;8442304;27;19928;-77
2023/12/26 18:34:00;;;;;;;;;;;6.60;99.90;;;;;;8454687;27;19928;-77
2023/12/26 18:38:02;;;;;;;;;;;6.50;99.90;;;;;;8455123;27;20291;-77
2023/12/26 18:42:05;;;;;;;;;;;6.50;99.90;;;;;;8449344;28;20387;-77
2023/12/26 18:46:11;;;;;;;;;;;6.40;99.90;;;;;;8455219;28;19923;-77
2023/12/26 18:50:12;;;;;;;;;;;6.40;99.90;;;;;;8459056;28;20301;-77
2023/12/26 18:54:14;;;;;;;;;;;6.30;99.90;;;;;;8450822;28;19927;-77
2023/12/26 18:58:16;;;;;;;;;;;6.20;99.90;;;;;;8454909;27;19935;-77
2023/12/26 19:02:18;;;;;;;;;;;6.10;99.90;;;;;;8462521;27;19979;-77
2023/12/26 19:06:20;;;;;;;;;;;6.10;99.90;;;;;;8458763;27;19947;-77
2023/12/26 19:10:21;;;;;;;;;;;6.00;99.90;;;;;;8467257;28;19930;-77
2023/12/26 19:14:23;;;;;;;;;;;5.90;99.90;;;;;;8451298;28;19931;-77
2023/12/26 19:18:25;;;;;;;;;;;5.90;99.90;;;;;;8456795;28;20324;-77
2023/12/26 19:22:27;;;;;;;;;;;5.80;99.90;;;;;;8458413;28;20116;-78
2023/12/26 19:26:28;;;;;;;;;;;5.70;99.90;;;;;;8455987;27;20005;-77
2023/12/26 19:30:30;;;;;;;;;;;5.70;99.90;;;;;;8462519;27;19924;-77
2023/12/26 19:34:32;;;;;;;;;;;5.60;99.90;;;;;;8468171;27;19950;-77
2023/12/26 19:38:36;;;;;;;;;;;5.60;99.90;;;;;;8449863;27;19932;-77
2023/12/26 19:42:38;;;;;;;;;;;5.60;99.90;;;;;;8460467;27;20289;-77
2023/12/26 19:46:40;;;;;;;;;;;5.50;99.90;;;;;;8469020;27;20450;-77
2023/12/26 19:50:42;;;;;;;;;;;5.50;99.90;;;;;;8460832;27;19927;-77
2023/12/26 19:54:44;;;;;;;;;;;5.40;99.90;;;;;;8463480;27;19958;-77
2023/12/26 19:58:45;;;;;;;;;;;5.40;99.90;;;;;;8462913;27;19932;-77
2023/12/26 20:02:47;;;;;;;;;;;5.40;99.90;;;;;;8461078;27;19970;-77
2023/12/26 20:06:49;;;;;;;;;;;5.40;99.90;;;;;;8445437;27;20519;-77
2023/12/26 20:10:51;;;;;;;;;;;5.30;99.90;;;;;;8465397;27;19977;-77
2023/12/26 20:14:53;;;;;;;;;;;5.30;99.90;;;;;;8459480;27;19928;-77
2023/12/26 20:18:54;;;;;;;;;;;5.20;99.90;;;;;;8460115;27;19935;-77
2023/12/26 20:22:57;;;;;;;;;;;5.20;99.90;;;;;;8459660;27;19963;-77
2023/12/26 20:26:59;;;;;;;;;;;5.10;99.90;;;;;;8457191;27;19934;-77
2023/12/26 20:31:01;;;;;;;;;;;5.10;99.90;;;;;;8466169;27;19927;-77
2023/12/26 20:35:03;;;;;;;;;;;5.00;99.90;;;;;;8464439;27;20507;-77
2023/12/26 20:39:05;;;;;;;;;;;5.00;99.90;;;;;;8454334;27;19931;-77
2023/12/26 20:43:07;;;;;;;;;;;4.90;99.90;;;;;;8463168;27;19985;-77
2023/12/26 20:47:08;;;;;;;;;;;4.90;99.90;;;;;;8466953;27;19931;-77
2023/12/26 20:51:11;;;;;;;;;;;4.80;99.90;;;;;;8460720;27;19928;-77
2023/12/26 20:55:13;;;;;;;;;;;4.80;99.90;;;;;;8445583;27;19928;-77
2023/12/26 20:59:15;;;;;;;;;;;4.70;99.90;;;;;;8458141;27;20393;-77
2023/12/26 21:03:16;;;;;;;;;;;4.70;99.90;;;;;;8463051;27;19949;-77
2023/12/26 21:07:18;;;;;;;;;;;4.70;99.90;;;;;;8461546;27;19931;-77
2023/12/26 21:11:20;;;;;;;;;;;4.60;99.90;;;;;;8462614;27;19923;-76
2023/12/26 21:15:21;;;;;;;;;;;4.50;99.90;;;;;;8452009;27;19928;-77
2023/12/26 21:19:23;;;;;;;;;;;4.50;99.90;;;;;;8463573;27;19928;-77
2023/12/26 21:23:25;;;;;;;;;;;4.50;99.90;;;;;;8457321;27;19973;-77
2023/12/26 21:27:27;;;;;;;;;;;4.50;99.90;;;;;;8461368;27;20367;-77
2023/12/26 21:31:28;;;;;;;;;;;4.40;99.90;;;;;;8458832;27;20374;-77
2023/12/26 21:35:30;;;;;;;;;;;4.40;99.90;;;;;;8458141;27;19924;-77
2023/12/26 21:39:32;;;;;;;;;;;4.40;99.90;;;;;;8444788;27;19924;-77
2023/12/26 21:43:34;;;;;;;;;;;4.30;99.90;;;;;;8447300;27;19931;-77
2023/12/26 21:47:35;;;;;;;;;;;4.30;99.90;;;;;;8461501;27;19932;-77
2023/12/26 21:51:37;;;;;;;;;;;4.30;99.90;;;;;;8461431;27;20251;-77
2023/12/26 21:55:39;;;;;;;;;;;4.30;99.90;;;;;;8458957;27;20286;-77
2023/12/26 21:59:41;;;;;;;;;;;4.20;99.90;;;;;;8455244;27;19924;-77
2023/12/26 22:03:42;;;;;;;;;;;4.20;99.90;;;;;;8467787;27;20379;-77
2023/12/26 22:07:44;;;;;;;;;;;4.20;99.90;;;;;;8470743;27;19934;-77
2023/12/26 22:11:46;;;;;;;;;;;4.10;99.90;;;;;;8461096;27;19923;-77
2023/12/26 22:15:48;;;;;;;;;;;4.10;99.90;;;;;;8486725;27;20268;-77
2023/12/26 22:19:50;;;;;;;;;;;4.10;99.90;;;;;;8474538;27;19927;-77
2023/12/26 22:23:53;;;;;;;;;;;4.00;99.90;;;;;;8488451;27;19928;-77
2023/12/26 22:27:54;;;;;;;;;;;4.00;99.90;;;;;;8459285;27;20104;-77
2023/12/26 22:31:56;;;;;;;;;;;3.90;99.90;;;;;;8460939;27;19923;-77
2023/12/26 22:35:58;;;;;;;;;;;4.00;99.90;;;;;;8477494;27;20333;-77
2023/12/26 22:40:00;;;;;;;;;;;3.90;99.90;;;;;;8447167;28;19934;-77
2023/12/26 22:44:03;;;;;;;;;;;3.90;99.90;;;;;;8471355;28;19928;-77
2023/12/26 22:48:05;;;;;;;;;;;3.90;99.90;;;;;;8478521;28;19943;-77
2023/12/26 22:52:09;;;;;;;;;;;3.90;99.90;;;;;;8476278;28;19983;-77
2023/12/26 22:56:11;;;;;;;;;;;3.90;99.90;;;;;;8459702;28;19934;-77
2023/12/26 23:00:20;;;;;;;;;;;3.80;99.90;;;;;;8472828;27;19923;-77
2023/12/26 23:04:22;;;;;;;;;;;3.80;99.90;;;;;;8451375;27;20499;-78
2023/12/26 23:08:23;;;;;;;;;;;3.80;99.90;;;;;;8476205;27;19924;-77
2023/12/26 23:12:25;;;;;;;;;;;3.80;99.90;;;;;;8475535;27;19980;-77
2023/12/26 23:16:27;;;;;;;;;;;3.80;99.90;;;;;;8455988;27;19969;-77
2023/12/26 23:20:28;;;;;;;;;;;3.80;99.90;;;;;;8486961;27;19931;-77
2023/12/26 23:24:30;;;;;;;;;;;3.80;99.90;;;;;;8457864;27;19974;-77
2023/12/26 23:28:32;;;;;;;;;;;3.80;99.90;;;;;;8462859;27;19923;-77
2023/12/26 23:32:33;;;;;;;;;;;3.80;99.90;;;;;;8472173;27;20455;-77
2023/12/26 23:36:36;;;;;;;;;;;3.70;99.90;;;;;;8470777;27;19928;-77
2023/12/26 23:40:38;;;;;;;;;;;3.70;99.90;;;;;;8457893;27;19985;-77
2023/12/26 23:44:39;;;;;;;;;;;3.80;99.90;;;;;;8478363;27;19923;-77
2023/12/26 23:48:41;;;;;;;;;;;3.70;99.90;;;;;;8477743;27;19963;-77
2023/12/26 23:52:43;;;;;;;;;;;3.70;99.90;;;;;;8459593;27;19923;-77
2023/12/26 23:56:45;;;;;;;;;;;3.70;99.90;;;;;;8455694;27;19928;-77
